sensor_id;sensor_type;location;lat;lon;timestamp;temperature;humidity
58513;DHT22;44302;47.914;10.642;2023-05-07T05:13:12;10.90;99.90
58513;DHT22;44302;47.914;10.642;2023-05-07T05:21:58;11.40;99.90
58513;DHT22;44302;47.914;10.642;2023-05-07T05:28:37;11.70;99.90
58513;DHT22;44302;47.914;10.642;2023-05-07T05:35:16;12.10;99.90
58513;DHT22;44302;47.914;10.642;2023-05-07T05:42:02;12.30;99.90
58513;DHT22;44302;47.914;10.642;2023-05-07T05:52:58;13.10;99.90
58513;DHT22;44302;47.914;10.642;2023-05-07T06:02:10;13.70;99.90
58513;DHT22;44302;47.914;10.642;2023-05-07T06:18:40;14.00;99.90
58513;DHT22;44302;47.914;10.642;2023-05-07T06:22:42;14.40;99.90
58513;DHT22;44302;47.914;10.642;2023-05-07T06:26:43;14.50;99.90
58513;DHT22;44302;47.914;10.642;2023-05-07T06:30:38;14.40;99.90
58513;DHT22;44302;47.914;10.642;2023-05-07T06:34:40;14.90;99.90
58513;DHT22;44302;47.914;10.642;2023-05-07T06:38:37;14.80;99.90
58513;DHT22;44302;47.914;10.642;2023-05-07T06:42:33;15.30;99.90
58513;DHT22;44302;47.914;10.642;2023-05-07T06:46:33;15.40;99.90
58513;DHT22;44302;47.914;10.642;2023-05-07T06:50:31;15.30;99.90
58513;DHT22;44302;47.914;10.642;2023-05-07T06:54:33;15.70;99.90
58513;DHT22;44302;47.914;10.642;2023-05-07T06:58:28;16.10;99.90
58513;DHT22;44302;47.914;10.642;2023-05-07T07:02:27;16.30;99.90
58513;DHT22;44302;47.914;10.642;2023-05-07T07:07:30;16.50;99.90
58513;DHT22;44302;47.914;10.642;2023-05-07T07:12:21;16.60;99.90
58513;DHT22;44302;47.914;10.642;2023-05-07T07:14:48;16.80;99.90
58513;DHT22;44302;47.914;10.642;2023-05-07T07:17:13;17.00;99.90
58513;DHT22;44302;47.914;10.642;2023-05-07T07:19:39;17.20;99.90
58513;DHT22;44302;47.914;10.642;2023-05-07T07:22:05;17.30;99.90
58513;DHT22;44302;47.914;10.642;2023-05-07T07:24:33;17.30;99.90
58513;DHT22;44302;47.914;10.642;2023-05-07T07:26:59;17.40;99.90
58513;DHT22;44302;47.914;10.642;2023-05-07T07:29:25;17.40;99.90
58513;DHT22;44302;47.914;10.642;2023-05-07T07:31:52;17.70;99.90
58513;DHT22;44302;47.914;10.642;2023-05-07T07:34:17;18.10;99.90
58513;DHT22;44302;47.914;10.642;2023-05-07T07:36:43;18.10;99.90
58513;DHT22;44302;47.914;10.642;2023-05-07T07:39:08;18.40;99.90
58513;DHT22;44302;47.914;10.642;2023-05-07T07:44:00;20.80;99.90
58513;DHT22;44302;47.914;10.642;2023-05-07T07:46:26;18.80;99.90
58513;DHT22;44302;47.914;10.642;2023-05-07T07:48:52;18.90;99.90
58513;DHT22;44302;47.914;10.642;2023-05-07T07:51:17;19.00;99.90
58513;DHT22;44302;47.914;10.642;2023-05-07T07:53:43;19.20;99.90
58513;DHT22;44302;47.914;10.642;2023-05-07T07:56:10;19.50;99.90
58513;DHT22;44302;47.914;10.642;2023-05-07T07:58:37;19.90;99.90
58513;DHT22;44302;47.914;10.642;2023-05-07T08:01:03;20.50;99.90
58513;DHT22;44302;47.914;10.642;2023-05-07T08:03:29;21.30;99.90
58513;DHT22;44302;47.914;10.642;2023-05-07T08:05:57;22.10;99.90
58513;DHT22;44302;47.914;10.642;2023-05-07T08:08:23;22.40;99.90
58513;DHT22;44302;47.914;10.642;2023-05-07T08:10:48;22.60;99.90
58513;DHT22;44302;47.914;10.642;2023-05-07T08:13:16;22.60;99.90
58513;DHT22;44302;47.914;10.642;2023-05-07T08:15:41;23.20;99.90
58513;DHT22;44302;47.914;10.642;2023-05-07T08:18:07;23.30;99.90
58513;DHT22;44302;47.914;10.642;2023-05-07T08:20:33;23.50;99.90
58513;DHT22;44302;47.914;10.642;2023-05-07T08:23:01;23.70;99.90
58513;DHT22;44302;47.914;10.642;2023-05-07T08:25:27;24.00;99.90
58513;DHT22;44302;47.914;10.642;2023-05-07T08:27:52;24.30;99.90
58513;DHT22;44302;47.914;10.642;2023-05-07T08:30:18;24.20;99.90
58513;DHT22;44302;47.914;10.642;2023-05-07T08:32:43;23.80;99.90
58513;DHT22;44302;47.914;10.642;2023-05-07T08:35:09;23.40;99.90
58513;DHT22;44302;47.914;10.642;2023-05-07T08:37:35;23.30;99.90
58513;DHT22;44302;47.914;10.642;2023-05-07T08:40:00;23.40;99.90
58513;DHT22;44302;47.914;10.642;2023-05-07T08:42:27;23.30;99.90
58513;DHT22;44302;47.914;10.642;2023-05-07T08:44:57;23.00;99.90
58513;DHT22;44302;47.914;10.642;2023-05-07T08:47:30;23.00;99.90
58513;DHT22;44302;47.914;10.642;2023-05-07T08:49:59;23.40;99.90
58513;DHT22;44302;47.914;10.642;2023-05-07T08:52:25;23.70;99.90
58513;DHT22;44302;47.914;10.642;2023-05-07T08:54:52;23.70;99.90
58513;DHT22;44302;47.914;10.642;2023-05-07T08:57:17;23.90;99.90
58513;DHT22;44302;47.914;10.642;2023-05-07T08:59:45;23.40;99.90
58513;DHT22;44302;47.914;10.642;2023-05-07T09:02:11;22.70;99.90
58513;DHT22;44302;47.914;10.642;2023-05-07T09:04:37;22.20;99.90
58513;DHT22;44302;47.914;10.642;2023-05-07T09:07:02;22.10;99.90
58513;DHT22;44302;47.914;10.642;2023-05-07T09:09:32;22.00;99.90
58513;DHT22;44302;47.914;10.642;2023-05-07T09:11:58;22.10;99.90
58513;DHT22;44302;47.914;10.642;2023-05-07T09:14:27;22.40;99.90
58513;DHT22;44302;47.914;10.642;2023-05-07T09:16:53;22.80;99.90
58513;DHT22;44302;47.914;10.642;2023-05-07T09:19:23;23.30;99.90
58513;DHT22;44302;47.914;10.642;2023-05-07T09:21:49;23.70;99.90
58513;DHT22;44302;47.914;10.642;2023-05-07T09:24:16;23.90;99.90
58513;DHT22;44302;47.914;10.642;2023-05-07T09:26:41;23.90;99.90
58513;DHT22;44302;47.914;10.642;2023-05-07T09:29:08;23.70;99.90
58513;DHT22;44302;47.914;10.642;2023-05-07T09:31:38;23.80;99.90
58513;DHT22;44302;47.914;10.642;2023-05-07T09:34:07;24.00;99.90
58513;DHT22;44302;47.914;10.642;2023-05-07T09:36:35;23.90;99.90
58513;DHT22;44302;47.914;10.642;2023-05-07T09:39:02;23.80;99.90
58513;DHT22;44302;47.914;10.642;2023-05-07T09:41:30;23.90;99.90
58513;DHT22;44302;47.914;10.642;2023-05-07T09:43:57;24.10;99.90
58513;DHT22;44302;47.914;10.642;2023-05-07T09:46:27;24.20;99.90
58513;DHT22;44302;47.914;10.642;2023-05-07T09:48:57;24.30;99.90
58513;DHT22;44302;47.914;10.642;2023-05-07T09:51:32;24.40;99.90
58513;DHT22;44302;47.914;10.642;2023-05-07T09:53:59;24.20;99.90
58513;DHT22;44302;47.914;10.642;2023-05-07T09:56:29;24.40;99.90
58513;DHT22;44302;47.914;10.642;2023-05-07T09:58:59;24.40;99.90
58513;DHT22;44302;47.914;10.642;2023-05-07T10:01:25;24.30;99.90
58513;DHT22;44302;47.914;10.642;2023-05-07T10:03:52;24.40;99.90
58513;DHT22;44302;47.914;10.642;2023-05-07T10:06:19;24.70;99.90
58513;DHT22;44302;47.914;10.642;2023-05-07T10:08:45;25.00;99.90
58513;DHT22;44302;47.914;10.642;2023-05-07T10:11:12;25.20;99.90
58513;DHT22;44302;47.914;10.642;2023-05-07T10:13:38;25.50;99.90
58513;DHT22;44302;47.914;10.642;2023-05-07T10:16:04;25.60;99.90
58513;DHT22;44302;47.914;10.642;2023-05-07T10:18:31;25.20;99.50
58513;DHT22;44302;47.914;10.642;2023-05-07T10:21:12;25.20;99.80
58513;DHT22;44302;47.914;10.642;2023-05-07T10:23:45;25.00;99.20
58513;DHT22;44302;47.914;10.642;2023-05-07T10:26:11;24.90;99.90
58513;DHT22;44302;47.914;10.642;2023-05-07T10:28:40;24.60;99.90
58513;DHT22;44302;47.914;10.642;2023-05-07T10:33:53;24.70;99.90
58513;DHT22;44302;47.914;10.642;2023-05-07T10:36:21;24.90;99.90
58513;DHT22;44302;47.914;10.642;2023-05-07T10:38:47;24.90;99.20
58513;DHT22;44302;47.914;10.642;2023-05-07T10:41:13;24.60;99.90
58513;DHT22;44302;47.914;10.642;2023-05-07T10:43:44;24.60;99.90
58513;DHT22;44302;47.914;10.642;2023-05-07T10:46:15;24.90;99.50
58513;DHT22;44302;47.914;10.642;2023-05-07T10:51:26;24.80;99.90
58513;DHT22;44302;47.914;10.642;2023-05-07T10:56:40;23.90;99.80
58513;DHT22;44302;47.914;10.642;2023-05-07T10:59:38;23.40;99.30
58513;DHT22;44302;47.914;10.642;2023-05-07T11:02:07;23.10;99.90
58513;DHT22;44302;47.914;10.642;2023-05-07T11:04:35;22.90;99.90
58513;DHT22;44302;47.914;10.642;2023-05-07T11:15:05;21.70;99.90
58513;DHT22;44302;47.914;10.642;2023-05-07T11:17:32;21.60;99.90
58513;DHT22;44302;47.914;10.642;2023-05-07T11:20:02;21.50;99.90
58513;DHT22;44302;47.914;10.642;2023-05-07T11:25:03;21.40;99.90
58513;DHT22;44302;47.914;10.642;2023-05-07T11:27:29;21.40;99.90
58513;DHT22;44302;47.914;10.642;2023-05-07T11:29:55;21.40;99.90
58513;DHT22;44302;47.914;10.642;2023-05-07T11:32:26;21.40;99.90
58513;DHT22;44302;47.914;10.642;2023-05-07T11:34:55;21.50;99.90
58513;DHT22;44302;47.914;10.642;2023-05-07T11:37:23;21.60;99.90
58513;DHT22;44302;47.914;10.642;2023-05-07T11:39:49;21.90;99.90
58513;DHT22;44302;47.914;10.642;2023-05-07T11:42:33;22.30;99.50
58513;DHT22;44302;47.914;10.642;2023-05-07T11:45:00;22.70;99.90
58513;DHT22;44302;47.914;10.642;2023-05-07T11:47:26;23.00;98.80
58513;DHT22;44302;47.914;10.642;2023-05-07T11:49:53;23.30;98.20
58513;DHT22;44302;47.914;10.642;2023-05-07T11:52:21;23.30;96.90
58513;DHT22;44302;47.914;10.642;2023-05-07T11:54:57;23.40;98.10
58513;DHT22;44302;47.914;10.642;2023-05-07T11:57:24;23.70;97.30
58513;DHT22;44302;47.914;10.642;2023-05-07T11:59:56;23.80;97.20
58513;DHT22;44302;47.914;10.642;2023-05-07T12:02:23;23.60;98.80
58513;DHT22;44302;47.914;10.642;2023-05-07T12:04:50;23.30;98.40
58513;DHT22;44302;47.914;10.642;2023-05-07T12:07:16;22.90;97.80
58513;DHT22;44302;47.914;10.642;2023-05-07T12:09:44;22.70;99.20
58513;DHT22;44302;47.914;10.642;2023-05-07T12:12:10;22.60;98.40
58513;DHT22;44302;47.914;10.642;2023-05-07T12:14:43;22.60;99.90
58513;DHT22;44302;47.914;10.642;2023-05-07T12:17:10;22.60;97.70
58513;DHT22;44302;47.914;10.642;2023-05-07T12:19:38;22.50;99.90
58513;DHT22;44302;47.914;10.642;2023-05-07T12:22:04;22.40;99.90
58513;DHT22;44302;47.914;10.642;2023-05-07T12:24:47;22.40;99.90
58513;DHT22;44302;47.914;10.642;2023-05-07T12:27:13;22.40;99.90
58513;DHT22;44302;47.914;10.642;2023-05-07T12:29:39;22.40;99.90
58513;DHT22;44302;47.914;10.642;2023-05-07T12:32:14;22.80;99.90
58513;DHT22;44302;47.914;10.642;2023-05-07T12:34:40;23.70;99.90
58513;DHT22;44302;47.914;10.642;2023-05-07T12:37:06;24.60;99.90
58513;DHT22;44302;47.914;10.642;2023-05-07T12:39:31;25.80;99.40
58513;DHT22;44302;47.914;10.642;2023-05-07T12:41:59;26.20;98.70
58513;DHT22;44302;47.914;10.642;2023-05-07T12:44:32;26.40;96.20
58513;DHT22;44302;47.914;10.642;2023-05-07T12:46:58;26.10;96.30
58513;DHT22;44302;47.914;10.642;2023-05-07T12:49:26;25.80;95.60
58513;DHT22;44302;47.914;10.642;2023-05-07T12:51:53;25.00;98.10
58513;DHT22;44302;47.914;10.642;2023-05-07T12:54:33;24.40;97.70
58513;DHT22;44302;47.914;10.642;2023-05-07T12:57:09;23.90;96.90
58513;DHT22;44302;47.914;10.642;2023-05-07T12:59:40;23.80;99.70
58513;DHT22;44302;47.914;10.642;2023-05-07T13:02:07;23.70;98.20
58513;DHT22;44302;47.914;10.642;2023-05-07T13:04:33;23.20;97.50
58513;DHT22;44302;47.914;10.642;2023-05-07T13:07:00;22.90;99.90
58513;DHT22;44302;47.914;10.642;2023-05-07T13:09:26;22.60;99.90
58513;DHT22;44302;47.914;10.642;2023-05-07T13:11:52;22.40;99.90
58513;DHT22;44302;47.914;10.642;2023-05-07T13:14:17;22.30;99.90
58513;DHT22;44302;47.914;10.642;2023-05-07T13:16:45;22.20;99.90
58513;DHT22;44302;47.914;10.642;2023-05-07T13:19:11;22.00;99.90
58513;DHT22;44302;47.914;10.642;2023-05-07T13:21:36;21.90;99.90
58513;DHT22;44302;47.914;10.642;2023-05-07T13:24:02;21.70;99.90
58513;DHT22;44302;47.914;10.642;2023-05-07T13:26:30;21.60;99.90
58513;DHT22;44302;47.914;10.642;2023-05-07T13:28:56;21.30;99.90
58513;DHT22;44302;47.914;10.642;2023-05-07T13:31:23;21.10;99.90
58513;DHT22;44302;47.914;10.642;2023-05-07T13:33:48;20.80;99.90
58513;DHT22;44302;47.914;10.642;2023-05-07T13:36:14;20.70;99.90
58513;DHT22;44302;47.914;10.642;2023-05-07T13:38:40;20.60;99.90
58513;DHT22;44302;47.914;10.642;2023-05-07T13:41:06;20.30;99.90
58513;DHT22;44302;47.914;10.642;2023-05-07T13:43:31;20.20;99.90
58513;DHT22;44302;47.914;10.642;2023-05-07T13:45:59;20.00;99.90
58513;DHT22;44302;47.914;10.642;2023-05-07T13:48:25;19.90;99.90
58513;DHT22;44302;47.914;10.642;2023-05-07T13:50:50;19.70;99.90
58513;DHT22;44302;47.914;10.642;2023-05-07T13:53:17;19.60;99.90
58513;DHT22;44302;47.914;10.642;2023-05-07T13:55:44;19.40;99.90
58513;DHT22;44302;47.914;10.642;2023-05-07T13:58:10;19.30;99.90
58513;DHT22;44302;47.914;10.642;2023-05-07T14:00:36;19.20;99.90
58513;DHT22;44302;47.914;10.642;2023-05-07T14:03:04;19.10;99.90
58513;DHT22;44302;47.914;10.642;2023-05-07T14:05:30;19.10;99.90
58513;DHT22;44302;47.914;10.642;2023-05-07T14:11:05;19.30;99.90
58513;DHT22;44302;47.914;10.642;2023-05-07T14:13:31;19.70;99.90
58513;DHT22;44302;47.914;10.642;2023-05-07T14:15:57;20.00;99.90
58513;DHT22;44302;47.914;10.642;2023-05-07T14:18:23;20.30;99.90
58513;DHT22;44302;47.914;10.642;2023-05-07T14:20:49;20.50;99.90
58513;DHT22;44302;47.914;10.642;2023-05-07T14:23:16;20.70;99.90
58513;DHT22;44302;47.914;10.642;2023-05-07T14:25:43;21.00;99.90
58513;DHT22;44302;47.914;10.642;2023-05-07T14:28:09;21.30;99.90
58513;DHT22;44302;47.914;10.642;2023-05-07T14:30:34;21.40;99.90
58513;DHT22;44302;47.914;10.642;2023-05-07T14:33:00;21.50;99.90
58513;DHT22;44302;47.914;10.642;2023-05-07T14:35:26;21.40;99.90
58513;DHT22;44302;47.914;10.642;2023-05-07T14:37:51;21.40;99.90
58513;DHT22;44302;47.914;10.642;2023-05-07T14:40:17;21.40;99.90
58513;DHT22;44302;47.914;10.642;2023-05-07T14:42:43;21.40;99.90
58513;DHT22;44302;47.914;10.642;2023-05-07T14:45:09;21.60;99.90
58513;DHT22;44302;47.914;10.642;2023-05-07T14:47:35;22.00;99.90
58513;DHT22;44302;47.914;10.642;2023-05-07T14:50:01;22.90;99.90
58513;DHT22;44302;47.914;10.642;2023-05-07T14:52:26;24.00;99.90
58513;DHT22;44302;47.914;10.642;2023-05-07T14:54:52;24.80;99.90
58513;DHT22;44302;47.914;10.642;2023-05-07T14:57:18;25.20;99.90
58513;DHT22;44302;47.914;10.642;2023-05-07T14:59:45;25.60;99.90
58513;DHT22;44302;47.914;10.642;2023-05-07T15:02:11;25.80;99.90
58513;DHT22;44302;47.914;10.642;2023-05-07T15:04:37;25.90;98.80
58513;DHT22;44302;47.914;10.642;2023-05-07T15:07:14;25.60;98.40
58513;DHT22;44302;47.914;10.642;2023-05-07T15:09:43;25.60;99.10
58513;DHT22;44302;47.914;10.642;2023-05-07T15:12:08;25.70;99.10
58513;DHT22;44302;47.914;10.642;2023-05-07T15:14:34;26.20;97.70
58513;DHT22;44302;47.914;10.642;2023-05-07T15:17:00;26.20;99.50
58513;DHT22;44302;47.914;10.642;2023-05-07T15:19:26;26.40;99.10
58513;DHT22;44302;47.914;10.642;2023-05-07T15:21:57;26.60;96.50
58513;DHT22;44302;47.914;10.642;2023-05-07T15:24:23;26.60;93.80
58513;DHT22;44302;47.914;10.642;2023-05-07T15:26:52;26.10;96.10
58513;DHT22;44302;47.914;10.642;2023-05-07T15:29:18;26.00;95.50
58513;DHT22;44302;47.914;10.642;2023-05-07T15:31:44;25.60;94.00
58513;DHT22;44302;47.914;10.642;2023-05-07T15:34:09;24.90;95.30
58513;DHT22;44302;47.914;10.642;2023-05-07T15:36:35;23.90;97.60
58513;DHT22;44302;47.914;10.642;2023-05-07T15:39:01;23.70;98.20
58513;DHT22;44302;47.914;10.642;2023-05-07T15:41:28;24.30;97.60
58513;DHT22;44302;47.914;10.642;2023-05-07T15:43:53;24.90;97.10
58513;DHT22;44302;47.914;10.642;2023-05-07T15:46:21;25.30;96.20
58513;DHT22;44302;47.914;10.642;2023-05-07T15:48:47;25.50;94.60
58513;DHT22;44302;47.914;10.642;2023-05-07T15:51:13;25.40;95.40
58513;DHT22;44302;47.914;10.642;2023-05-07T15:53:39;25.40;94.20
58513;DHT22;44302;47.914;10.642;2023-05-07T15:56:05;25.10;94.50
58513;DHT22;44302;47.914;10.642;2023-05-07T15:58:31;24.10;94.40
58513;DHT22;44302;47.914;10.642;2023-05-07T16:00:58;23.00;96.40
58513;DHT22;44302;47.914;10.642;2023-05-07T16:03:26;22.10;97.70
58513;DHT22;44302;47.914;10.642;2023-05-07T16:05:54;21.40;97.50
58513;DHT22;44302;47.914;10.642;2023-05-07T16:08:25;20.90;98.90
58513;DHT22;44302;47.914;10.642;2023-05-07T16:10:51;20.60;99.80
58513;DHT22;44302;47.914;10.642;2023-05-07T16:13:18;20.40;99.90
58513;DHT22;44302;47.914;10.642;2023-05-07T16:15:47;20.10;99.90
58513;DHT22;44302;47.914;10.642;2023-05-07T16:18:13;19.90;99.90
58513;DHT22;44302;47.914;10.642;2023-05-07T16:20:42;19.80;99.90
58513;DHT22;44302;47.914;10.642;2023-05-07T16:33:13;19.50;99.90
